Time;durP1;ratioP1;P1;durP2;ratioP2;P2;SDS_P1;SDS_P2;PMS_P1;PMS_P2;Temp;Humidity;BMP_temperature;BMP_pressure;BME280_temperature;BME280_humidity;BME280_pressure;Samples;Min_cycle;Max_cycle;Signal;HPM_P1;HPM_P2
2021/07/07 00:00:54;;;;;;;6.35;4.60;;;;;;;;;;8327022;28;20489;-70
2021/07/07 00:05:00;;;;;;;6.63;4.63;;;;;;;;;;8313344;28;20471;-70
2021/07/07 00:09:08;;;;;;;8.07;5.68;;;;;;;;;;8327280;28;20940;-71
2021/07/07 00:13:14;;;;;;;11.38;5.97;;;;;;;;;;8326049;28;20350;-70
2021/07/07 00:17:20;;;;;;;11.15;5.00;;;;;;;;;;8326567;28;20509;-69
2021/07/07 00:21:26;;;;;;;6.55;4.70;;;;;;;;;;8326479;28;20370;-70
2021/07/07 00:25:31;;;;;;;7.80;6.05;;;;;;;;;;8324034;28;20708;-70
2021/07/07 00:29:38;;;;;;;6.50;4.97;;;;;;;;;;8326209;28;20348;-70
2021/07/07 00:33:42;;;;;;;7.03;5.20;;;;;;;;;;8326843;28;20370;-70
2021/07/07 00:37:48;;;;;;;8.45;5.38;;;;;;;;;;8326432;28;20336;-71
2021/07/07 00:41:53;;;;;;;6.95;5.07;;;;;;;;;;8325633;28;20384;-70
2021/07/07 00:45:58;;;;;;;8.27;5.68;;;;;;;;;;8324680;28;20463;-70
2021/07/07 00:50:06;;;;;;;7.57;5.95;;;;;;;;;;8323494;28;20051;-70
2021/07/07 00:54:14;;;;;;;9.10;5.43;;;;;;;;;;8324121;28;20048;-70
2021/07/07 00:58:23;;;;;;;7.65;5.80;;;;;;;;;;8323774;28;20347;-70
2021/07/07 01:02:30;;;;;;;9.55;5.63;;;;;;;;;;8325384;28;20048;-70
2021/07/07 01:06:34;;;;;;;9.68;5.82;;;;;;;;;;8328969;28;20044;-70
2021/07/07 01:10:40;;;;;;;10.02;5.90;;;;;;;;;;8325063;28;20378;-70
2021/07/07 01:14:45;;;;;;;13.05;5.70;;;;;;;;;;8324776;28;20044;-70
2021/07/07 01:18:50;;;;;;;10.32;6.15;;;;;;;;;;8325513;28;20490;-70
2021/07/07 01:22:57;;;;;;;10.25;5.72;;;;;;;;;;8325803;28;20459;-70
2021/07/07 01:27:03;;;;;;;8.98;6.40;;;;;;;;;;8323273;28;20350;-70
2021/07/07 01:31:08;;;;;;;10.48;5.80;;;;;;;;;;8323318;28;20071;-70
2021/07/07 01:35:16;;;;;;;8.65;5.90;;;;;;;;;;8322993;28;20450;-70
2021/07/07 01:39:21;;;;;;;9.35;6.70;;;;;;;;;;8323136;28;20074;-70
2021/07/07 01:43:27;;;;;;;8.98;6.60;;;;;;;;;;8322248;28;20075;-70
2021/07/07 01:47:32;;;;;;;9.75;6.30;;;;;;;;;;8326478;28;20060;-70
2021/07/07 01:51:38;;;;;;;8.55;5.70;;;;;;;;;;8323255;28;20056;-70
2021/07/07 01:55:44;;;;;;;8.90;6.20;;;;;;;;;;8325114;28;20351;-70
2021/07/07 01:59:49;;;;;;;8.30;5.93;;;;;;;;;;8324105;28;20044;-70
2021/07/07 02:03:54;;;;;;;8.27;5.90;;;;;;;;;;8323923;28;20370;-70
2021/07/07 02:08:03;;;;;;;10.93;6.22;;;;;;;;;;8324632;28;20467;-70
2021/07/07 02:12:09;;;;;;;6.55;5.25;;;;;;;;;;8322809;28;20044;-70
2021/07/07 02:16:14;;;;;;;8.80;6.40;;;;;;;;;;8324570;28;20378;-70
2021/07/07 02:20:20;;;;;;;9.40;6.40;;;;;;;;;;8321564;28;20340;-72
2021/07/07 02:24:25;;;;;;;8.88;6.43;;;;;;;;;;8322257;28;20375;-71
2021/07/07 02:28:31;;;;;;;9.07;6.75;;;;;;;;;;8323171;28;20067;-70
2021/07/07 02:32:36;;;;;;;9.85;6.65;;;;;;;;;;8322113;28;20474;-70
2021/07/07 02:36:42;;;;;;;8.48;6.10;;;;;;;;;;8322626;28;20379;-70
2021/07/07 02:40:50;;;;;;;9.80;6.72;;;;;;;;;;8305075;28;20382;-70
2021/07/07 02:44:56;;;;;;;9.07;6.20;;;;;;;;;;8323172;28;20070;-70
2021/07/07 02:49:01;;;;;;;9.38;6.93;;;;;;;;;;8321779;28;20506;-70
2021/07/07 02:53:09;;;;;;;10.43;7.35;;;;;;;;;;8321322;28;20366;-70
2021/07/07 02:57:15;;;;;;;;;;;;;;;;;;8323390;28;20397;-70
2021/07/07 03:01:21;;;;;;;10.27;7.10;;;;;;;;;;8323148;28;20343;-70
2021/07/07 03:05:27;;;;;;;10.05;6.78;;;;;;;;;;8320863;28;20040;-70
2021/07/07 03:09:33;;;;;;;9.75;7.50;;;;;;;;;;8325754;28;20367;-70
2021/07/07 03:13:39;;;;;;;12.02;7.35;;;;;;;;;;8326804;28;20362;-70
2021/07/07 03:17:44;;;;;;;11.48;7.53;;;;;;;;;;8328093;28;20474;-70
2021/07/07 03:21:50;;;;;;;9.63;7.07;;;;;;;;;;8329590;28;20463;-70
2021/07/07 03:25:55;;;;;;;9.85;7.65;;;;;;;;;;8326994;28;20466;-70
2021/07/07 03:30:01;;;;;;;11.07;7.93;;;;;;;;;;8326406;28;20474;-70
2021/07/07 03:34:07;;;;;;;11.80;7.80;;;;;;;;;;8329734;28;20467;-70
2021/07/07 03:38:12;;;;;;;10.77;7.70;;;;;;;;;;8325329;28;20355;-70
2021/07/07 03:42:17;;;;;;;11.18;8.02;;;;;;;;;;8327689;28;20361;-70
2021/07/07 03:46:23;;;;;;;17.52;8.57;;;;;;;;;;8327173;28;20048;-69
2021/07/07 03:50:29;;;;;;;10.20;7.30;;;;;;;;;;8326988;28;20475;-70
2021/07/07 03:54:34;;;;;;;9.52;6.80;;;;;;;;;;8326778;28;20519;-70
2021/07/07 03:58:40;;;;;;;10.98;8.07;;;;;;;;;;8327220;28;20044;-70
2021/07/07 04:02:45;;;;;;;11.95;7.30;;;;;;;;;;8327850;28;20366;-70
2021/07/07 04:06:56;;;;;;;10.23;7.05;;;;;;;;;;8326929;28;20494;-70
2021/07/07 04:11:01;;;;;;;13.52;7.82;;;;;;;;;;8326545;28;20459;-71
2021/07/07 04:15:08;;;;;;;12.30;7.20;;;;;;;;;;8326205;28;20382;-70
2021/07/07 04:19:12;;;;;;;9.63;7.43;;;;;;;;;;8325831;28;20044;-70
2021/07/07 04:23:18;;;;;;;11.50;6.63;;;;;;;;;;8325752;28;20417;-70
2021/07/07 04:27:23;;;;;;;10.80;7.35;;;;;;;;;;8325144;28;20486;-70
2021/07/07 04:31:29;;;;;;;9.15;6.65;;;;;;;;;;8324313;28;20048;-70
2021/07/07 04:35:34;;;;;;;9.52;7.22;;;;;;;;;;8326878;28;20067;-72
2021/07/07 04:39:41;;;;;;;11.88;7.65;;;;;;;;;;8327176;28;20044;-70
2021/07/07 04:43:46;;;;;;;11.50;6.47;;;;;;;;;;8326060;28;20451;-70
2021/07/07 04:47:52;;;;;;;11.52;6.88;;;;;;;;;;8324518;28;20051;-70
2021/07/07 04:51:58;;;;;;;11.30;7.28;;;;;;;;;;8325045;28;20500;-71
2021/07/07 04:56:04;;;;;;;8.82;6.90;;;;;;;;;;8323114;28;20066;-70
2021/07/07 05:00:24;;;;;;;12.13;7.03;;;;;;;;;;8326719;28;20386;-70
2021/07/07 05:04:29;;;;;;;9.07;6.70;;;;;;;;;;8325971;28;20485;-70
2021/07/07 05:08:35;;;;;;;9.57;6.53;;;;;;;;;;8323717;28;20495;-70
2021/07/07 05:12:42;;;;;;;8.20;6.55;;;;;;;;;;8324795;28;20447;-70
2021/07/07 05:16:47;;;;;;;8.80;6.68;;;;;;;;;;8323812;28;20378;-70
2021/07/07 05:20:53;;;;;;;11.27;6.68;;;;;;;;;;8325141;28;20066;-70
2021/07/07 05:24:58;;;;;;;8.60;5.80;;;;;;;;;;8324951;28;20474;-70
2021/07/07 05:29:03;;;;;;;9.25;6.28;;;;;;;;;;8324515;28;20058;-70
2021/07/07 05:33:09;;;;;;;8.52;5.32;;;;;;;;;;8324491;28;20066;-71
2021/07/07 05:37:15;;;;;;;7.10;5.43;;;;;;;;;;8323660;28;20391;-71
2021/07/07 05:41:20;;;;;;;6.72;4.93;;;;;;;;;;8323674;28;20502;-70
2021/07/07 05:45:28;;;;;;;6.10;4.90;;;;;;;;;;8323863;28;20553;-70
2021/07/07 05:49:33;;;;;;;10.13;5.43;;;;;;;;;;8321598;28;20044;-70
2021/07/07 05:53:38;;;;;;;9.82;5.45;;;;;;;;;;8323422;28;20460;-70
2021/07/07 05:57:44;;;;;;;6.60;4.63;;;;;;;;;;8326011;28;20063;-70
2021/07/07 06:01:49;;;;;;;8.13;4.10;;;;;;;;;;8305975;28;20339;-71
2021/07/07 06:05:54;;;;;;;7.40;4.25;;;;;;;;;;8325131;28;20366;-71
2021/07/07 06:10:00;;;;;;;5.78;3.85;;;;;;;;;;8323063;28;20344;-70
2021/07/07 06:14:05;;;;;;;6.82;3.80;;;;;;;;;;8322372;28;20375;-70
2021/07/07 06:18:11;;;;;;;9.20;3.63;;;;;;;;;;8325205;28;20336;-71
2021/07/07 06:22:17;;;;;;;8.10;3.92;;;;;;;;;;8324526;28;20379;-70
2021/07/07 06:26:22;;;;;;;6.93;3.63;;;;;;;;;;8323369;28;20062;-71
2021/07/07 06:30:29;;;;;;;5.03;3.78;;;;;;;;;;8325029;28;20492;-70
2021/07/07 06:34:35;;;;;;;12.40;4.20;;;;;;;;;;8323025;28;20356;-70
2021/07/07 06:38:40;;;;;;;5.90;4.23;;;;;;;;;;8321500;28;20356;-70
2021/07/07 06:42:46;;;;;;;5.95;4.13;;;;;;;;;;8327220;28;20822;-70
2021/07/07 06:46:52;;;;;;;;;;;;;;;;;;8331353;28;20467;-70
2021/07/07 06:50:58;;;;;;;7.63;3.60;;;;;;;;;;8330310;28;20242;-71
2021/07/07 06:55:05;;;;;;;6.63;3.53;;;;;;;;;;8327540;28;20443;-71
2021/07/07 06:59:10;;;;;;;11.63;3.95;;;;;;;;;;8329591;28;20062;-71
2021/07/07 07:03:15;;;;;;;9.45;3.90;;;;;;;;;;8327491;28;20044;-71
2021/07/07 07:07:20;;;;;;;12.32;3.80;;;;;;;;;;8328198;28;20459;-71
2021/07/07 07:11:25;;;;;;;16.20;4.20;;;;;;;;;;8329052;28;20385;-72
2021/07/07 07:15:30;;;;;;;15.50;3.85;;;;;;;;;;8327445;28;20366;-71
2021/07/07 07:19:36;;;;;;;5.90;3.15;;;;;;;;;;8327953;28;20473;-71
2021/07/07 07:23:42;;;;;;;6.97;3.05;;;;;;;;;;8327067;28;20378;-71
2021/07/07 07:27:51;;;;;;;9.60;2.40;;;;;;;;;;8327221;28;20458;-72
2021/07/07 07:31:57;;;;;;;5.15;2.97;;;;;;;;;;8329478;28;20474;-72
2021/07/07 07:36:02;;;;;;;5.82;2.50;;;;;;;;;;8328357;28;20471;-72
2021/07/07 07:40:13;;;;;;;2.90;2.10;;;;;;;;;;8326440;28;20475;-71
2021/07/07 07:44:19;;;;;;;2.70;1.80;;;;;;;;;;8325301;28;20052;-71
2021/07/07 07:48:24;;;;;;;5.40;1.95;;;;;;;;;;8321703;28;20367;-71
2021/07/07 07:52:29;;;;;;;1.85;1.60;;;;;;;;;;8260785;28;20053;-72
2021/07/07 07:56:34;;;;;;;1.75;1.48;;;;;;;;;;8274626;28;20453;-71
2021/07/07 08:00:40;;;;;;;3.90;1.33;;;;;;;;;;8259647;28;20075;-72
2021/07/07 08:04:45;;;;;;;2.42;1.20;;;;;;;;;;8261938;28;20501;-72
2021/07/07 08:08:49;;;;;;;2.33;1.63;;;;;;;;;;8261263;28;20351;-71
2021/07/07 08:12:54;;;;;;;2.53;1.10;;;;;;;;;;8261541;28;20475;-72
2021/07/07 08:17:00;;;;;;;;;;;;;;;;;;8259477;28;20488;-72
2021/07/07 08:21:06;;;;;;;2.78;1.50;;;;;;;;;;8259353;28;20237;-72
2021/07/07 08:25:12;;;;;;;2.78;1.40;;;;;;;;;;8261567;28;20368;-72
2021/07/07 08:29:17;;;;;;;1.75;1.15;;;;;;;;;;8260449;28;20345;-71
2021/07/07 08:33:22;;;;;;;1.35;1.13;;;;;;;;;;8261293;28;20360;-73
2021/07/07 08:37:27;;;;;;;1.17;0.98;;;;;;;;;;8262117;28;20067;-71
2021/07/07 08:41:34;;;;;;;2.05;1.42;;;;;;;;;;8259705;28;20440;-72
2021/07/07 08:45:39;;;;;;;4.15;0.90;;;;;;;;;;8260260;28;20470;-71
2021/07/07 08:49:44;;;;;;;1.20;0.90;;;;;;;;;;8281485;28;20359;-72
2021/07/07 08:53:49;;;;;;;3.13;1.50;;;;;;;;;;8325250;28;20479;-72
2021/07/07 08:57:55;;;;;;;2.13;1.13;;;;;;;;;;8324790;28;20470;-72
2021/07/07 09:02:10;;;;;;;2.33;1.02;;;;;;;;;;8323435;28;21693;-73
2021/07/07 09:06:19;;;;;;;4.23;0.97;;;;;;;;;;8323177;28;20056;-72
2021/07/07 09:10:31;;;;;;;3.97;1.00;;;;;;;;;;8308128;28;20059;-73
2021/07/07 09:14:35;;;;;;;3.45;1.00;;;;;;;;;;8282754;28;20390;-72
2021/07/07 09:18:41;;;;;;;2.22;1.13;;;;;;;;;;8294851;28;20431;-72
2021/07/07 09:22:48;;;;;;;2.25;1.00;;;;;;;;;;8290013;28;20384;-72
2021/07/07 09:27:14;;;;;;;4.05;1.23;;;;;;;;;;8274390;28;20359;-72
2021/07/07 09:31:38;;;;;;;1.23;0.90;;;;;;;;;;8272968;28;20463;-72
2021/07/07 09:35:44;;;;;;;3.35;1.42;;;;;;;;;;8293563;28;20402;-72
2021/07/07 09:39:50;;;;;;;2.38;1.25;;;;;;;;;;8296514;28;20466;-72
2021/07/07 09:43:56;;;;;;;9.10;1.30;;;;;;;;;;8308124;28;20325;-72
2021/07/07 09:48:01;;;;;;;3.78;1.67;;;;;;;;;;8319216;28;20335;-72
2021/07/07 09:52:07;;;;;;;5.13;1.50;;;;;;;;;;8317271;28;20372;-72
2021/07/07 09:56:12;;;;;;;4.15;1.42;;;;;;;;;;8319214;28;20324;-71
2021/07/07 10:00:24;;;;;;;3.10;1.40;;;;;;;;;;8318745;28;20408;-72
2021/07/07 10:04:32;;;;;;;5.60;1.30;;;;;;;;;;8322197;28;20446;-71
2021/07/07 10:08:38;;;;;;;4.25;1.38;;;;;;;;;;8320849;28;20356;-71
2021/07/07 10:12:48;;;;;;;3.20;1.10;;;;;;;;;;8320461;28;20458;-72
2021/07/07 10:16:55;;;;;;;1.80;1.25;;;;;;;;;;8324670;28;20475;-71
2021/07/07 10:21:01;;;;;;;1.15;1.00;;;;;;;;;;8322873;28;20390;-72
2021/07/07 10:25:11;;;;;;;9.30;1.05;;;;;;;;;;8322008;28;20052;-72
2021/07/07 10:29:17;;;;;;;1.38;1.10;;;;;;;;;;8305199;28;20077;-71
2021/07/07 10:33:35;;;;;;;10.30;1.33;;;;;;;;;;8322643;28;20455;-72
2021/07/07 10:37:44;;;;;;;1.13;1.02;;;;;;;;;;8322359;28;20471;-72
2021/07/07 10:41:56;;;;;;;2.88;1.50;;;;;;;;;;8322597;28;20475;-71
2021/07/07 10:46:01;;;;;;;1.55;1.42;;;;;;;;;;8320576;28;20459;-69
2021/07/07 10:50:09;;;;;;;4.43;1.15;;;;;;;;;;8322234;28;20455;-70
2021/07/07 10:54:23;;;;;;;2.13;1.35;;;;;;;;;;8323533;28;20054;-71
2021/07/07 10:58:38;;;;;;;2.47;1.40;;;;;;;;;;8323093;28;20366;-73
2021/07/07 11:02:44;;;;;;;1.50;1.20;;;;;;;;;;8322974;28;20378;-71
2021/07/07 11:06:50;;;;;;;3.35;1.40;;;;;;;;;;8321326;28;20455;-72
2021/07/07 11:11:01;;;;;;;1.42;1.27;;;;;;;;;;8321625;28;20362;-72
2021/07/07 11:15:08;;;;;;;2.35;1.40;;;;;;;;;;8324852;28;20356;-72
2021/07/07 11:19:40;;;;;;;4.07;1.17;;;;;;;;;;8324228;28;20371;-71
2021/07/07 11:23:48;;;;;;;3.97;1.23;;;;;;;;;;8321651;28;20401;-69
2021/07/07 11:27:54;;;;;;;3.30;1.42;;;;;;;;;;8323391;28;20475;-69
2021/07/07 11:32:00;;;;;;;1.42;1.20;;;;;;;;;;8326285;28;20377;-70
2021/07/07 11:36:06;;;;;;;1.83;1.10;;;;;;;;;;8328129;28;20360;-69
2021/07/07 11:40:19;;;;;;;4.30;1.38;;;;;;;;;;8328481;28;20059;-71
2021/07/07 11:44:45;;;;;;;4.03;0.98;;;;;;;;;;8325033;28;20505;-72
2021/07/07 11:48:49;;;;;;;;;;;;;;;;;;8328644;28;20476;-71
2021/07/07 11:53:07;;;;;;;1.88;1.23;;;;;;;;;;8328195;28;20342;-71
2021/07/07 11:57:12;;;;;;;5.93;1.33;;;;;;;;;;8328862;28;20048;-72
2021/07/07 12:01:22;;;;;;;1.33;1.15;;;;;;;;;;8326044;28;20466;-72
2021/07/07 12:05:28;;;;;;;2.72;1.10;;;;;;;;;;8327098;28;20044;-71
2021/07/07 12:09:33;;;;;;;3.95;1.30;;;;;;;;;;8327349;28;20352;-71
2021/07/07 12:13:50;;;;;;;3.78;1.13;;;;;;;;;;8326365;28;20370;-72
2021/07/07 12:17:55;;;;;;;7.97;1.50;;;;;;;;;;8327275;28;20369;-72
2021/07/07 12:22:07;;;;;;;3.42;1.50;;;;;;;;;;8327226;28;20073;-73
2021/07/07 12:26:13;;;;;;;1.48;1.10;;;;;;;;;;8326719;28;20458;-72
2021/07/07 12:30:18;;;;;;;1.35;1.20;;;;;;;;;;8326364;28;20069;-71
2021/07/07 12:34:36;;;;;;;3.25;1.52;;;;;;;;;;8324756;28;20052;-72
2021/07/07 12:38:49;;;;;;;1.80;1.30;;;;;;;;;;8325298;28;20405;-71
2021/07/07 12:42:55;;;;;;;6.47;1.30;;;;;;;;;;8325356;28;20471;-71
2021/07/07 12:47:03;;;;;;;3.07;1.23;;;;;;;;;;8324657;28;20393;-72
2021/07/07 12:51:28;;;;;;;1.83;1.20;;;;;;;;;;8325729;28;20382;-72
2021/07/07 12:55:33;;;;;;;3.40;1.15;;;;;;;;;;8324867;28;20363;-71
2021/07/07 12:59:53;;;;;;;4.40;1.25;;;;;;;;;;8325179;28;20475;-71
2021/07/07 13:03:59;;;;;;;1.52;1.20;;;;;;;;;;8325449;28;20367;-72
2021/07/07 13:08:14;;;;;;;8.43;2.77;;;;;;;;;;8324658;28;20683;-71
2021/07/07 13:12:28;;;;;;;2.08;1.50;;;;;;;;;;8324473;28;20063;-71
2021/07/07 13:16:34;;;;;;;3.00;1.45;;;;;;;;;;8325156;28;20362;-71
2021/07/07 13:20:39;;;;;;;2.28;1.50;;;;;;;;;;8325385;28;20501;-71
2021/07/07 13:24:49;;;;;;;1.40;1.20;;;;;;;;;;8325484;28;20364;-72
2021/07/07 13:29:27;;;;;;;1.95;1.30;;;;;;;;;;8324556;28;20056;-71
2021/07/07 13:33:33;;;;;;;1.60;1.23;;;;;;;;;;8325579;28;20089;-71
2021/07/07 13:37:41;;;;;;;3.90;1.38;;;;;;;;;;8324024;28;20504;-71
2021/07/07 13:41:47;;;;;;;1.27;1.17;;;;;;;;;;8322580;28;20044;-71
2021/07/07 13:45:52;;;;;;;5.10;1.48;;;;;;;;;;8324076;28;20052;-71
2021/07/07 13:49:58;;;;;;;2.38;1.60;;;;;;;;;;8323164;28;20394;-72
2021/07/07 13:54:03;;;;;;;3.55;1.50;;;;;;;;;;8323451;28;20374;-71
2021/07/07 13:58:08;;;;;;;2.00;1.50;;;;;;;;;;8323612;28;20348;-72
2021/07/07 14:02:14;;;;;;;2.70;1.30;;;;;;;;;;8324139;28;20380;-71
2021/07/07 14:06:20;;;;;;;2.03;1.23;;;;;;;;;;8324373;28;20503;-71
2021/07/07 14:10:26;;;;;;;4.18;1.73;;;;;;;;;;8321771;28;20482;-71
2021/07/07 14:14:34;;;;;;;2.80;1.60;;;;;;;;;;8323979;28;20389;-71
2021/07/07 14:18:40;;;;;;;3.03;2.00;;;;;;;;;;8322859;28;20370;-71
2021/07/07 14:22:45;;;;;;;9.10;1.60;;;;;;;;;;8322498;28;20378;-71
2021/07/07 14:26:50;;;;;;;2.25;1.60;;;;;;;;;;8322406;28;20349;-71
2021/07/07 14:30:54;;;;;;;6.28;1.58;;;;;;;;;;8322408;28;20424;-72
2021/07/07 14:35:00;;;;;;;2.42;2.00;;;;;;;;;;8323021;28;20366;-71
2021/07/07 14:39:05;;;;;;;5.35;2.00;;;;;;;;;;8324126;28;20401;-71
2021/07/07 14:43:09;;;;;;;5.05;1.60;;;;;;;;;;8322879;28;20397;-71
2021/07/07 14:47:14;;;;;;;6.38;2.17;;;;;;;;;;8320506;28;20470;-71
2021/07/07 14:51:22;;;;;;;5.28;2.08;;;;;;;;;;8324153;28;20459;-71
2021/07/07 14:55:31;;;;;;;11.18;2.80;;;;;;;;;;8322694;28;20352;-71
2021/07/07 14:59:37;;;;;;;10.00;2.65;;;;;;;;;;8321724;28;20352;-71
2021/07/07 15:03:42;;;;;;;3.53;2.20;;;;;;;;;;8326450;28;20477;-71
2021/07/07 15:07:47;;;;;;;4.82;2.72;;;;;;;;;;8328070;28;20340;-71
2021/07/07 15:11:54;;;;;;;3.30;2.03;;;;;;;;;;8329490;28;20043;-71
2021/07/07 15:16:00;;;;;;;3.20;2.28;;;;;;;;;;8329745;28;20499;-71
2021/07/07 15:20:08;;;;;;;4.07;2.20;;;;;;;;;;8330116;28;20474;-71
2021/07/07 15:24:13;;;;;;;6.32;2.03;;;;;;;;;;8328163;28;20044;-71
2021/07/07 15:28:19;;;;;;;2.80;2.13;;;;;;;;;;8329247;28;20474;-71
2021/07/07 15:32:24;;;;;;;5.90;2.78;;;;;;;;;;8311135;28;20500;-70
2021/07/07 15:36:29;;;;;;;4.00;2.25;;;;;;;;;;8326904;28;20300;-71
2021/07/07 15:40:35;;;;;;;6.15;2.53;;;;;;;;;;8326813;28;20052;-71
2021/07/07 15:44:40;;;;;;;3.53;2.33;;;;;;;;;;8326544;28;20348;-74
2021/07/07 15:48:45;;;;;;;3.28;2.50;;;;;;;;;;8329291;28;20497;-71
2021/07/07 15:52:50;;;;;;;3.22;2.35;;;;;;;;;;8327999;28;20754;-70
2021/07/07 15:56:55;;;;;;;5.88;2.17;;;;;;;;;;8328432;28;20406;-71
2021/07/07 16:01:00;;;;;;;5.88;3.08;;;;;;;;;;8330036;28;20371;-70
2021/07/07 16:05:08;;;;;;;5.78;2.30;;;;;;;;;;8326339;28;20347;-71
2021/07/07 16:09:13;;;;;;;3.65;2.95;;;;;;;;;;8327133;28;20362;-72
2021/07/07 16:13:18;;;;;;;4.20;2.55;;;;;;;;;;8327737;28;20490;-72
2021/07/07 16:17:24;;;;;;;6.43;2.47;;;;;;;;;;8326605;28;20425;-71
2021/07/07 16:21:30;;;;;;;4.72;3.03;;;;;;;;;;8327921;28;20362;-71
2021/07/07 16:25:35;;;;;;;3.85;2.28;;;;;;;;;;8329539;28;20052;-71
2021/07/07 16:29:40;;;;;;;3.78;2.80;;;;;;;;;;8327064;28;20355;-71
2021/07/07 16:33:47;;;;;;;3.05;2.47;;;;;;;;;;8324927;28;20051;-70
2021/07/07 16:37:52;;;;;;;3.33;2.70;;;;;;;;;;8326834;28;20457;-71
2021/07/07 16:41:57;;;;;;;5.65;2.72;;;;;;;;;;8326417;28;20363;-71
2021/07/07 16:46:02;;;;;;;37.97;7.78;;;;;;;;;;8326807;28;20069;-71
2021/07/07 16:50:08;;;;;;;3.88;2.97;;;;;;;;;;8328110;28;20469;-71
2021/07/07 16:54:12;;;;;;;8.75;3.25;;;;;;;;;;8325998;28;20478;-71
2021/07/07 16:58:18;;;;;;;9.70;2.90;;;;;;;;;;8324593;28;20371;-71
2021/07/07 17:02:27;;;;;;;20.63;4.55;;;;;;;;;;8326232;28;20350;-71
2021/07/07 17:06:32;;;;;;;9.40;3.33;;;;;;;;;;8226837;28;22329;-71
2021/07/07 17:10:37;;;;;;;4.22;2.65;;;;;;;;;;8233692;28;20611;-71
2021/07/07 17:14:43;;;;;;;6.77;3.10;;;;;;;;;;8216834;28;20368;-71
2021/07/07 17:18:48;;;;;;;3.67;2.80;;;;;;;;;;8227683;28;20404;-71
2021/07/07 17:22:53;;;;;;;2.60;2.30;;;;;;;;;;8228986;28;20355;-71
2021/07/07 17:26:59;;;;;;;3.65;2.60;;;;;;;;;;8214593;28;20499;-71
2021/07/07 17:31:05;;;;;;;6.90;3.15;;;;;;;;;;8224125;28;20468;-71
2021/07/07 17:35:11;;;;;;;7.75;3.22;;;;;;;;;;8215324;28;20640;-71
2021/07/07 17:39:16;;;;;;;6.70;3.33;;;;;;;;;;8250283;28;20475;-71
2021/07/07 17:43:22;;;;;;;10.38;3.30;;;;;;;;;;8221856;28;20672;-71
2021/07/07 17:47:27;;;;;;;13.73;4.00;;;;;;;;;;8225826;28;20049;-71
2021/07/07 17:51:33;;;;;;;9.98;3.65;;;;;;;;;;8201763;28;20421;-71
2021/07/07 17:55:38;;;;;;;7.28;3.42;;;;;;;;;;8237343;28;20353;-71
2021/07/07 17:59:45;;;;;;;14.90;3.92;;;;;;;;;;8223710;28;20383;-71
2021/07/07 18:04:07;;;;;;;5.97;3.55;;;;;;;;;;8225937;28;20449;-71
2021/07/07 18:08:12;;;;;;;9.88;3.80;;;;;;;;;;8215429;28;20045;-71
2021/07/07 18:12:18;;;;;;;10.75;3.80;;;;;;;;;;8223104;28;20484;-71
2021/07/07 18:16:23;;;;;;;17.65;4.43;;;;;;;;;;8271563;28;20040;-71
2021/07/07 18:20:29;;;;;;;10.23;3.92;;;;;;;;;;8255181;28;20471;-71
2021/07/07 18:24:34;;;;;;;17.05;4.07;;;;;;;;;;8239015;28;20062;-71
2021/07/07 18:28:40;;;;;;;14.05;4.18;;;;;;;;;;8223419;28;20518;-70
2021/07/07 18:32:45;;;;;;;11.77;4.70;;;;;;;;;;8218575;28;20127;-71
2021/07/07 18:36:51;;;;;;;8.95;3.63;;;;;;;;;;8224523;28;20360;-72
2021/07/07 18:40:56;;;;;;;10.65;4.70;;;;;;;;;;8258282;28;20071;-71
2021/07/07 18:45:03;;;;;;;10.07;4.60;;;;;;;;;;8225432;28;20341;-71
2021/07/07 18:49:08;;;;;;;6.33;4.60;;;;;;;;;;8206486;28;20491;-71
2021/07/07 18:53:12;;;;;;;14.60;4.82;;;;;;;;;;8224162;28;21012;-71
2021/07/07 18:57:19;;;;;;;15.57;6.05;;;;;;;;;;8223714;28;20403;-71
2021/07/07 19:01:23;;;;;;;6.90;4.20;;;;;;;;;;8224693;28;20381;-71
2021/07/07 19:05:28;;;;;;;30.90;16.88;;;;;;;;;;8225451;28;20480;-71
2021/07/07 19:09:37;;;;;;;8.75;4.78;;;;;;;;;;8224648;28;20469;-71
2021/07/07 19:13:46;;;;;;;5.80;3.75;;;;;;;;;;8222358;28;20049;-71
2021/07/07 19:17:52;;;;;;;6.38;4.03;;;;;;;;;;8222460;28;20353;-71
2021/07/07 19:21:58;;;;;;;6.37;3.90;;;;;;;;;;8223438;28;20349;-71
2021/07/07 19:26:03;;;;;;;9.90;3.50;;;;;;;;;;8222342;28;20491;-71
2021/07/07 19:30:10;;;;;;;5.75;2.80;;;;;;;;;;8223963;28;20461;-71
2021/07/07 19:34:19;;;;;;;10.77;2.55;;;;;;;;;;8223722;28;20365;-72
2021/07/07 19:38:24;;;;;;;4.32;1.90;;;;;;;;;;8224744;28;20369;-71
2021/07/07 19:42:30;;;;;;;5.18;2.13;;;;;;;;;;8221874;28;20480;-71
2021/07/07 19:46:35;;;;;;;5.55;2.10;;;;;;;;;;8224031;28;20416;-71
2021/07/07 19:50:40;;;;;;;9.45;2.08;;;;;;;;;;8226254;28;20496;-72
2021/07/07 19:54:45;;;;;;;4.78;2.22;;;;;;;;;;8229416;28;20358;-71
2021/07/07 19:58:50;;;;;;;11.30;2.08;;;;;;;;;;8226821;28;20411;-71
2021/07/07 20:02:57;;;;;;;7.95;2.33;;;;;;;;;;8230303;28;20368;-71
2021/07/07 20:07:02;;;;;;;19.57;2.13;;;;;;;;;;8242894;28;20330;-71
2021/07/07 20:11:07;;;;;;;4.60;2.28;;;;;;;;;;8229410;28;20514;-71
2021/07/07 20:15:13;;;;;;;7.18;2.00;;;;;;;;;;8229132;28;20448;-71
2021/07/07 20:19:18;;;;;;;5.80;1.88;;;;;;;;;;8230992;28;20338;-71
2021/07/07 20:23:24;;;;;;;6.40;1.88;;;;;;;;;;8228568;28;20356;-71
2021/07/07 20:27:30;;;;;;;7.82;2.03;;;;;;;;;;8227921;28;20368;-71
2021/07/07 20:31:35;;;;;;;11.75;2.63;;;;;;;;;;8226897;28;20369;-71
2021/07/07 20:35:41;;;;;;;5.63;2.50;;;;;;;;;;8227136;28;20484;-71
2021/07/07 20:39:46;;;;;;;11.07;2.15;;;;;;;;;;8229148;28;20373;-72
2021/07/07 20:43:52;;;;;;;5.80;2.10;;;;;;;;;;8228198;28;20454;-72
2021/07/07 20:47:58;;;;;;;6.10;2.05;;;;;;;;;;8227480;28;20372;-71
2021/07/07 20:52:05;;;;;;;7.28;2.10;;;;;;;;;;8226718;28;20049;-71
2021/07/07 20:56:10;;;;;;;6.28;2.00;;;;;;;;;;8226887;28;20400;-71
2021/07/07 21:00:22;;;;;;;11.57;2.10;;;;;;;;;;8226361;28;20333;-72
2021/07/07 21:04:28;;;;;;;7.68;2.33;;;;;;;;;;8225934;28;20475;-72
2021/07/07 21:08:34;;;;;;;3.88;2.22;;;;;;;;;;8226310;28;20067;-71
2021/07/07 21:12:40;;;;;;;7.27;2.20;;;;;;;;;;8158306;28;20354;-71
2021/07/07 21:16:43;;;;;;;10.77;2.30;;;;;;;;;;8157307;28;20580;-71
2021/07/07 21:20:49;;;;;;;9.75;1.67;;;;;;;;;;8157535;28;20374;-71
2021/07/07 21:24:54;;;;;;;5.90;2.00;;;;;;;;;;8157909;28;20403;-71
2021/07/07 21:29:00;;;;;;;10.95;2.15;;;;;;;;;;8157872;28;20577;-71
2021/07/07 21:33:06;;;;;;;5.65;1.88;;;;;;;;;;8157780;28;20389;-71
2021/07/07 21:37:11;;;;;;;5.65;1.90;;;;;;;;;;8157526;28;20456;-71
2021/07/07 21:41:17;;;;;;;9.10;1.75;;;;;;;;;;8161393;28;20331;-71
2021/07/07 21:45:25;;;;;;;6.15;1.85;;;;;;;;;;8224514;28;20380;-72
2021/07/07 21:49:31;;;;;;;5.03;2.95;;;;;;;;;;8223121;28;20049;-71
2021/07/07 21:53:39;;;;;;;12.48;1.83;;;;;;;;;;8224774;28;20352;-71
2021/07/07 21:57:45;;;;;;;6.85;1.92;;;;;;;;;;8224989;28;20063;-71
2021/07/07 22:01:51;;;;;;;5.97;1.88;;;;;;;;;;8224670;28;20366;-71
2021/07/07 22:05:57;;;;;;;7.75;1.90;;;;;;;;;;8224956;28;20524;-71
2021/07/07 22:10:03;;;;;;;3.92;1.70;;;;;;;;;;8224501;28;20488;-71
2021/07/07 22:14:09;;;;;;;9.53;2.40;;;;;;;;;;8226472;28;20356;-71
2021/07/07 22:18:14;;;;;;;4.40;1.98;;;;;;;;;;8226388;28;20368;-71
2021/07/07 22:22:20;;;;;;;4.28;1.73;;;;;;;;;;8226897;28;20049;-71
2021/07/07 22:26:31;;;;;;;4.30;2.15;;;;;;;;;;8224250;28;20041;-71
2021/07/07 22:30:35;;;;;;;8.35;2.08;;;;;;;;;;8224790;28;20397;-71
2021/07/07 22:34:40;;;;;;;2.50;1.38;;;;;;;;;;8224560;28;20484;-71
2021/07/07 22:38:45;;;;;;;5.90;1.90;;;;;;;;;;8223928;28;20376;-71
2021/07/07 22:42:51;;;;;;;8.52;1.70;;;;;;;;;;8224252;28;20480;-71
2021/07/07 22:46:56;;;;;;;3.67;1.88;;;;;;;;;;8239864;28;20400;-72
2021/07/07 22:51:04;;;;;;;8.00;1.83;;;;;;;;;;8221969;28;20365;-71
2021/07/07 22:55:12;;;;;;;5.13;1.95;;;;;;;;;;8206232;28;20404;-71
2021/07/07 22:59:17;;;;;;;;;;;;;;;;;;8224878;28;20442;-71
2021/07/07 23:03:23;;;;;;;9.55;2.25;;;;;;;;;;8224236;28;20367;-71
2021/07/07 23:07:30;;;;;;;10.93;2.17;;;;;;;;;;8224991;28;20076;-71
2021/07/07 23:11:35;;;;;;;4.50;1.88;;;;;;;;;;8222326;28;20460;-71
2021/07/07 23:15:40;;;;;;;6.93;2.15;;;;;;;;;;8223702;28;20476;-71
2021/07/07 23:19:46;;;;;;;5.95;2.30;;;;;;;;;;8221936;28;20365;-71
2021/07/07 23:23:52;;;;;;;5.50;2.10;;;;;;;;;;8223825;28;20369;-71
2021/07/07 23:27:57;;;;;;;7.65;2.30;;;;;;;;;;8231747;28;20444;-72
2021/07/07 23:32:02;;;;;;;6.95;1.95;;;;;;;;;;8228738;28;20049;-71
2021/07/07 23:36:08;;;;;;;4.85;2.28;;;;;;;;;;8230339;28;20371;-71
2021/07/07 23:40:17;;;;;;;5.63;1.90;;;;;;;;;;8230971;28;20321;-71
2021/07/07 23:44:22;;;;;;;3.45;1.73;;;;;;;;;;8229724;28;20054;-71
2021/07/07 23:48:28;;;;;;;5.20;2.10;;;;;;;;;;8230637;28;20397;-71
2021/07/07 23:52:33;;;;;;;7.43;2.10;;;;;;;;;;8229065;28;20072;-71
2021/07/07 23:56:38;;;;;;;6.75;2.22;;;;;;;;;;8227394;28;20385;-71
